KFDY

Findlay Airport

Findlay, Ohio, USA
KFDY 162320Z 1700/1724 24008KT P6SM BKN250 FM171400 29014G25KT P6SM BKN035
Issued Valid From Valid To
Oct-16 @ 23:20 UTC
(6 hours ago)
Oct-17 @ 00:00 UTC
(5 hours ago)
Oct-18 @ 00:00 UTC
(in 19 hours)
Oct-17 @ 00:00 to Oct-17 @ 14:00
KFDY 162320Z 1700/1724 24008KT P6SM BKN250
Wind Visibility Clouds
240° at 8 knots Greater than 6 miles
  • Broken at 25,000' AGL
From Oct-17 @ 14:00 to Oct-18 @ 00:00
FM171400 29014G25KT P6SM BKN035
Wind Visibility Clouds
290° at 14 knots
 Gusting to 25 knots
Greater than 6 miles
  • Broken at 3,500' AGL
KFDY 162320Z 1700/1724 24008KT P6SM BKN250 FM171400 29014G25KT P6SM BKN035
Issued Oct-16 @ 23:20 UTC
(6 hours ago)
Valid From Oct-17 @ 00:00 UTC
(5 hours ago)
Valid To Oct-18 @ 00:00 UTC
(in 19 hours)
Oct-17 @ 00:00 - Oct-17 @ 14:00
Wind Visibility
240° at 8 knots Greater than 6 miles
Clouds
  • Broken at 25,000' AGL
From Oct-17 @ 14:00 - Oct-18 @ 00:00
Wind Visibility
290° at 14 knots
 Gusting to 25 knots
Greater than 6 miles
Clouds
  • Broken at 3,500' AGL